Island Park, ID (83429)

7:51 PM MST on February 08, 2016 (GMT -0700)
Yellowstone | | Change Station
CLOSE
Current Station
Airport
Location: Yellowstone,
Elevation: 7835 ft
Nearby Weather Stations

Elev 7835 ft 44.54 °N, 110.42 °W | Updated 55 minutes ago

Partly Cloudy
Partly Cloudy
24 °F
Feels Like 24 °F
N
0
Wind Variable Wind from North
Gusts mph

Today
High -- | Low -- °F
--% Chance of Precip.
Yesterday
High -- | Low -- °F
Precip. -- in
Pressure 30.76 in
Visibility -9999.0 miles
Clouds
Dew Point 18 °F
Humidity 77%
Rainfall 0.00 in
Snow Depth Not available.
7:35 AM 5:43 PM
New Moon, 0% visible
METAR KP60 090156Z AUTO 00000KT M04/M08 A3056 RMK AO1 SLP415 T10441078
Pressure 30.76 in
Visibility -9999.0 miles
Clouds
Dew Point 18 °F
Humidity 77%
Rainfall 0.00 in
Snow Depth Not available.
7:35 AM 5:43 PM
New Moon, 0% visible
METAR KP60 090156Z AUTO 00000KT M04/M08 A3056 RMK AO1 SLP415 T10441078

10-Day Weather Forecast

Almanac

Astronomy

Feb. 08, 2016 Rise Set
Actual Time
Civil Twilight
Nautical Twilight
Astronomical Twilight
Moon
Length of Visible Light
Length of Day
Tomorrow will be .
, % of the Moon is Illuminated

Today's Extremes

State Highs State Lows

Community

WunderPhotos

Upload Photos

1,891,527 photos uploaded!

WunderBlog® & News

Nearby

Air Quality

  Air Quality AQ Index Pollutant
Not available.

Snow Depth

Station Depth Elevation

Earthquake Activity

City Distance Mag. Time & Date
Minimum magnitude displayed is 2.5.

Coastal Water Temperatures

Place Temperature

Stations

Nearby Weather Stations

Station Location Temp. Windchill Dew Point Humidity Wind Precip. Elev Updated Type
                   

Watches & Warnings

There are currently no watches in effect.